Silver Cloud — C6MQ5 — position and weather

sailwx.info

Track history (hours):
 
Tides and Currents Weather Stations Pressure Air Temp Water Temp Dewpoint Dewpoint Depression Visibility Wind Speed Wind Dir Waves Ship Positions

Silver Cloud

Operator: V Ships Leisure SAM

Last reported at 2015-Jul-04 15:03 UTC. Time now 2015-Jul-04 22:30 UTC.
Position N 63°07' E 007°41'.

Length 155 m; draft 5.6 m.

Type: Passenger vessel. MMSI: 309027000.

Date/timePositionNaut miles runAvg speedWind from/ knotsBaromVisibWave heightAir tempDewpointWater temp
2015-Jul-04 15:03N 63°07' E 007°41'1 2.4
2015-Jul-04 14:33N 63°07' E 007°44'0 0.0
2015-Jul-04 13:33N 63°07' E 007°44'0 0.0
2015-Jul-04 12:33N 63°07' E 007°44'0 0.0
2015-Jul-04 11:33N 63°07' E 007°44'0 0.0
2015-Jul-04 10:32N 63°07' E 007°44'0 0.0
2015-Jul-04 09:33N 63°07' E 007°44'0 0.0
2015-Jul-04 08:33N 63°07' E 007°44'0 0.0
2015-Jul-04 07:33N 63°07' E 007°44'4 3.5
2015-Jul-04 06:32N 63°10' E 007°44'47114.7
2015-Jul-02 22:34N 69°38' E 018°53'30814.0
2015-Jul-02 00:33N 69°33' E 033°35'28 1.1
2015-Jun-30 22:16N 69°20' E 034°46'1013.9
2015-Jun-30 21:33N 69°20' E 035°14'  
2015-Jun-26 17:07N 69°46' E 019°08'814.4
2015-Jun-26 16:33N 69°40' E 018°51'3 2.4
2015-Jun-26 15:31N 69°39' E 018°58'0 0.0
2015-Jun-26 14:31N 69°39' E 018°58'0 0.0
2015-Jun-26 13:25N 69°39' E 018°58'0 0.0
2015-Jun-26 12:31N 69°39' E 018°58'0 0.0
2015-Jun-26 11:25N 69°39' E 018°58'0 0.0
2015-Jun-26 10:28N 69°39' E 018°58'0 0.0
2015-Jun-26 09:31N 69°39' E 018°58'0 0.0
2015-Jun-26 08:31N 69°39' E 018°58'0 0.0
2015-Jun-26 07:33N 69°39' E 018°58'0 0.0
2015-Jun-26 06:33N 69°39' E 018°58'0 0.1
2015-Jun-26 05:33N 69°39' E 018°58'142 4.9
2015-Jun-25 00:30N 67°56' E 014°26'1613.6
2015-Jun-24 23:20N 67°44' E 013°59'8913.0
2015-Jun-24 16:30N 66°32' E 011°43'  
Track history (hours):
 
Tides and Currents Weather Stations Pressure Air Temp Water Temp Dewpoint Dewpoint Depression Visibility Wind Speed Wind Dir Waves Ship Positions

Silver Cloud

Operator: V Ships Leisure SAM

Last reported at 2015-Jul-04 15:03 UTC. Time now 2015-Jul-04 22:30 UTC.
Position N 63°07' E 007°41'.

Length 155 m; draft 5.6 m.

Type: Passenger vessel. MMSI: 309027000.

Date/timePositionNaut miles runAvg speedWind from/ knotsBaromVisibWave heightAir tempDewpointWater temp
2015-Jul-04 15:03N 63°07' E 007°41'1 2.4
2015-Jul-04 14:33N 63°07' E 007°44'0 0.0
2015-Jul-04 13:33N 63°07' E 007°44'0 0.0
2015-Jul-04 12:33N 63°07' E 007°44'0 0.0
2015-Jul-04 11:33N 63°07' E 007°44'0 0.0
2015-Jul-04 10:32N 63°07' E 007°44'0 0.0
2015-Jul-04 09:33N 63°07' E 007°44'0 0.0
2015-Jul-04 08:33N 63°07' E 007°44'0 0.0
2015-Jul-04 07:33N 63°07' E 007°44'4 3.5
2015-Jul-04 06:32N 63°10' E 007°44'47114.7
2015-Jul-02 22:34N 69°38' E 018°53'30814.0
2015-Jul-02 00:33N 69°33' E 033°35'28 1.1
2015-Jun-30 22:16N 69°20' E 034°46'1013.9
2015-Jun-30 21:33N 69°20' E 035°14'  
2015-Jun-26 17:07N 69°46' E 019°08'814.4
2015-Jun-26 16:33N 69°40' E 018°51'3 2.4
2015-Jun-26 15:31N 69°39' E 018°58'0 0.0
2015-Jun-26 14:31N 69°39' E 018°58'0 0.0
2015-Jun-26 13:25N 69°39' E 018°58'0 0.0
2015-Jun-26 12:31N 69°39' E 018°58'0 0.0
2015-Jun-26 11:25N 69°39' E 018°58'0 0.0
2015-Jun-26 10:28N 69°39' E 018°58'0 0.0
2015-Jun-26 09:31N 69°39' E 018°58'0 0.0
2015-Jun-26 08:31N 69°39' E 018°58'0 0.0
2015-Jun-26 07:33N 69°39' E 018°58'0 0.0
2015-Jun-26 06:33N 69°39' E 018°58'0 0.1
2015-Jun-26 05:33N 69°39' E 018°58'142 4.9
2015-Jun-25 00:30N 67°56' E 014°26'1613.6
2015-Jun-24 23:20N 67°44' E 013°59'8913.0
2015-Jun-24 16:30N 66°32' E 011°43'  

Dump ship's entire track history